Time;durP1;ratioP1;P1;durP2;ratioP2;P2;SDS_P1;SDS_P2;PMS_P1;PMS_P2;Temp;Humidity;BMP_temperature;BMP_pressure;BME280_temperature;BME280_humidity;BME280_pressure;Samples;Min_cycle;Max_cycle;Signal;HPM_P1;HPM_P2
2022/07/22 00:00:48;;;;;;;3.87;3.57;;;;;;;24.41;64.88;97826.06;5075693;28;20646;-31
2022/07/22 00:03:14;;;;;;;4.10;3.80;;;;;;;24.39;64.52;97823.44;5076943;28;20577;-31
2022/07/22 00:05:41;;;;;;;3.47;3.27;;;;;;;24.42;64.96;97825.25;5074054;28;20251;-31
2022/07/22 00:08:08;;;;;;;4.03;3.73;;;;;;;24.41;64.84;97819.22;5076949;28;20240;-31
2022/07/22 00:10:34;;;;;;;4.10;3.80;;;;;;;24.44;64.72;97828.69;5075270;28;20235;-31
2022/07/22 00:13:01;;;;;;;4.20;3.80;;;;;;;24.44;64.47;97826.13;5077032;28;20287;-30
2022/07/22 00:15:28;;;;;;;3.53;3.33;;;;;;;24.43;65.03;97824.41;5059123;28;20219;-31
2022/07/22 00:17:54;;;;;;;3.50;3.20;;;;;;;24.43;64.66;97820.13;5073840;28;20712;-30
2022/07/22 00:20:21;;;;;;;3.80;3.50;;;;;;;24.43;64.74;97819.25;5080625;28;20290;-31
2022/07/22 00:22:48;;;;;;;3.80;3.50;;;;;;;24.44;65.26;97816.72;5081820;28;20204;-31
2022/07/22 00:25:14;;;;;;;3.83;3.53;;;;;;;24.44;64.96;97815.84;5083712;28;20192;-31
2022/07/22 00:27:41;;;;;;;4.17;3.87;;;;;;;24.43;65.05;97812.44;5070661;28;20256;-31
2022/07/22 00:30:08;;;;;;;4.00;3.70;;;;;;;24.45;64.75;97812.47;5074145;28;20251;-31
2022/07/22 00:32:35;;;;;;;4.07;3.77;;;;;;;24.44;65.02;97805.56;5089446;28;20203;-30
2022/07/22 00:35:02;;;;;;;4.00;3.70;;;;;;;24.44;65.11;97805.56;5074735;28;20210;-30
2022/07/22 00:37:29;;;;;;;3.97;3.67;;;;;;;24.44;65.04;97818.41;5075444;28;20254;-31
2022/07/22 00:39:56;;;;;;;3.70;3.47;;;;;;;24.45;64.97;97809.91;5071939;28;20204;-30
2022/07/22 00:42:22;;;;;;;3.70;3.40;;;;;;;24.44;64.75;97809.00;5074029;28;20216;-31
2022/07/22 00:44:49;;;;;;;3.80;3.50;;;;;;;24.44;64.95;97811.59;5078212;28;20268;-31
2022/07/22 00:47:16;;;;;;;3.90;3.60;;;;;;;24.43;65.05;97814.13;5080868;28;20307;-30
2022/07/22 00:49:42;;;;;;;3.67;3.37;;;;;;;24.43;65.19;97807.28;5075062;28;20245;-31
2022/07/22 00:52:09;;;;;;;3.80;3.50;;;;;;;24.38;65.12;97798.59;5090142;28;20291;-31
2022/07/22 00:54:36;;;;;;;3.80;3.50;;;;;;;24.44;65.12;97810.69;5054422;28;20296;-31
2022/07/22 00:57:03;;;;;;;3.63;3.43;;;;;;;24.44;64.83;97811.59;5069115;28;20601;-30
2022/07/22 00:59:29;;;;;;;4.00;3.70;;;;;;;24.45;64.69;97808.16;5082472;28;20315;-31
2022/07/22 01:01:56;;;;;;;3.30;3.10;;;;;;;24.44;65.35;97803.88;5091366;28;20199;-31
2022/07/22 01:04:23;;;;;;;3.70;3.40;;;;;;;24.44;65.27;97801.31;5080899;28;20589;-31
2022/07/22 01:06:49;;;;;;;3.73;3.43;;;;;;;24.44;64.62;97800.44;5065027;28;20220;-31
2022/07/22 01:09:16;;;;;;;3.57;3.33;;;;;;;24.42;64.60;97805.53;5081300;28;20228;-30
2022/07/22 01:11:42;;;;;;;3.57;3.33;;;;;;;24.43;64.83;97801.28;5078638;28;20266;-31
2022/07/22 01:14:09;;;;;;;3.87;3.57;;;;;;;24.42;64.59;97791.84;5074868;28;20240;-31
2022/07/22 01:16:36;;;;;;;3.80;3.50;;;;;;;23.83;65.10;97689.44;5074210;28;20251;-31
2022/07/22 01:19:03;;;;;;;3.90;3.60;;;;;;;24.41;64.84;97801.25;5076174;28;20254;-31
2022/07/22 01:21:30;;;;;;;3.93;3.63;;;;;;;24.41;64.89;97800.34;5080384;28;20238;-31
2022/07/22 01:23:57;;;;;;;3.80;3.50;;;;;;;24.41;64.63;97795.22;5076275;28;20207;-30
2022/07/22 01:26:24;;;;;;;3.77;3.53;;;;;;;24.40;64.82;97794.38;5086553;28;20267;-32
2022/07/22 01:28:51;;;;;;;3.90;3.60;;;;;;;24.36;64.81;97795.13;5073826;28;20284;-31
2022/07/22 01:31:18;;;;;;;3.20;3.00;;;;;;;24.38;65.08;97790.00;5078565;28;20196;-31
2022/07/22 01:33:44;;;;;;;3.63;3.33;;;;;;;24.40;64.80;97796.94;5078694;28;20200;-31
2022/07/22 01:36:11;;;;;;;3.50;3.30;;;;;;;24.41;65.01;97797.78;5080878;28;20315;-31
2022/07/22 01:38:38;;;;;;;3.80;3.50;;;;;;;24.40;64.73;97794.38;5073263;28;20232;-31
2022/07/22 01:41:04;;;;;;;3.90;3.60;;;;;;;24.42;64.60;97796.97;5078464;28;20228;-31
2022/07/22 01:43:32;;;;;;;3.83;3.60;;;;;;;24.42;64.74;97789.28;5088355;28;20303;-31
2022/07/22 01:45:58;;;;;;;3.80;3.50;;;;;;;24.42;64.93;97799.53;5087813;28;20215;-31
2022/07/22 01:48:25;;;;;;;3.87;3.57;;;;;;;24.43;64.50;97797.00;5079650;28;20255;-31
2022/07/22 01:50:52;;;;;;;3.43;3.23;;;;;;;24.42;64.99;97795.25;5082878;28;20204;-31
2022/07/22 01:53:18;;;;;;;3.60;3.40;;;;;;;24.43;65.02;97791.88;5084490;28;20292;-31
2022/07/22 01:55:45;;;;;;;3.63;3.40;;;;;;;24.43;65.22;97786.72;5089098;28;20298;-31
2022/07/22 01:58:11;;;;;;;4.10;3.80;;;;;;;24.42;65.09;97786.69;5080516;28;20296;-31
2022/07/22 02:00:38;;;;;;;3.73;3.43;;;;;;;24.42;64.74;97774.69;5080897;28;20239;-31
2022/07/22 02:03:05;;;;;;;3.80;3.50;;;;;;;24.42;64.90;97787.53;5084071;28;20286;-31
2022/07/22 02:05:32;;;;;;;3.70;3.40;;;;;;;24.43;64.78;97786.72;5084136;28;20310;-30
2022/07/22 02:08:02;;;;;;;3.43;3.23;;;;;;;24.42;64.79;97784.97;5083271;28;20216;-31
2022/07/22 02:10:29;;;;;;;3.90;3.60;;;;;;;24.43;64.67;97788.44;5084657;28;20579;-31
2022/07/22 02:12:56;;;;;;;4.10;3.60;;;;;;;24.43;65.04;97788.44;5081890;28;20291;-31
2022/07/22 02:15:23;;;;;;;3.43;3.23;;;;;;;24.43;64.95;97780.72;5077306;28;20311;-31
2022/07/22 02:17:49;;;;;;;3.60;3.40;;;;;;;24.43;65.28;97789.31;5077910;28;20226;-31
2022/07/22 02:20:16;;;;;;;4.00;3.70;;;;;;;24.43;65.17;97789.31;5086168;28;20227;-32
2022/07/22 02:22:43;;;;;;;3.77;3.47;;;;;;;24.38;65.04;97775.47;5082945;28;20242;-31
2022/07/22 02:25:09;;;;;;;3.90;3.60;;;;;;;24.43;65.03;97776.47;5073722;28;20223;-32
2022/07/22 02:27:36;;;;;;;3.93;3.63;;;;;;;24.43;64.72;97776.47;5124146;22;20691;-22
2022/07/22 02:30:04;;;;;;;4.03;3.73;;;;;;;24.43;64.72;97779.03;5101052;28;20291;-21
2022/07/22 02:32:30;;;;;;;3.67;3.37;;;;;;;24.37;65.02;97768.59;5098854;28;20685;-21
2022/07/22 02:34:57;;;;;;;3.70;3.40;;;;;;;24.44;65.19;97774.72;5101939;28;20237;-21
2022/07/22 02:37:24;;;;;;;3.80;3.50;;;;;;;24.44;64.41;97775.63;5100572;28;20593;-21
2022/07/22 02:39:51;;;;;;;3.53;3.30;;;;;;;24.33;65.02;97758.22;5094918;28;20227;-22
2022/07/22 02:42:18;;;;;;;4.00;3.70;;;;;;;24.43;65.02;97773.00;5097723;28;20199;-22
2022/07/22 02:44:44;;;;;;;4.03;3.73;;;;;;;24.41;64.52;97770.41;5109752;28;20294;-22
2022/07/22 02:47:11;;;;;;;3.87;3.57;;;;;;;24.36;64.99;97760.84;5102786;28;20701;-22
2022/07/22 02:49:37;;;;;;;3.80;3.50;;;;;;;23.11;64.87;97545.78;5096091;28;20644;-22
2022/07/22 02:52:04;;;;;;;3.63;3.33;;;;;;;24.41;64.97;97774.66;5104399;28;20633;-22
2022/07/22 02:54:31;;;;;;;3.90;3.60;;;;;;;24.40;65.39;97771.25;5098365;28;20235;-21
2022/07/22 02:56:57;;;;;;;3.93;3.63;;;;;;;24.40;64.89;97775.50;5108271;28;20214;-22
2022/07/22 02:59:24;;;;;;;3.80;3.50;;;;;;;24.40;65.05;97771.25;5097306;28;20295;-22
2022/07/22 03:01:51;;;;;;;3.43;3.23;;;;;;;24.40;64.49;97775.50;5103565;28;20219;-22
2022/07/22 03:04:18;;;;;;;3.50;3.30;;;;;;;24.34;64.74;97765.94;5106330;28;20731;-22
2022/07/22 03:06:44;;;;;;;3.73;3.43;;;;;;;24.34;64.97;97768.50;5099714;28;20219;-22
2022/07/22 03:09:11;;;;;;;3.67;3.40;;;;;;;24.39;65.23;97772.06;5106890;28;20573;-22
2022/07/22 03:11:38;;;;;;;3.90;3.60;;;;;;;24.41;64.92;97782.38;5105784;28;20249;-21
2022/07/22 03:14:04;;;;;;;3.20;3.00;;;;;;;24.34;64.58;97765.94;5097444;28;20295;-22
2022/07/22 03:16:31;;;;;;;3.40;3.20;;;;;;;24.41;65.10;97774.66;5103973;28;20668;-22
2022/07/22 03:18:58;;;;;;;3.43;3.23;;;;;;;24.41;64.71;97772.09;5101469;28;20281;-22
2022/07/22 03:21:25;;;;;;;3.63;3.33;;;;;;;24.41;64.97;97772.97;5095747;28;20325;-22
2022/07/22 03:23:53;;;;;;;3.70;3.40;;;;;;;24.43;64.73;97767.88;5101973;28;20227;-21
2022/07/22 03:26:21;;;;;;;3.40;3.20;;;;;;;24.43;64.67;97771.31;5110891;28;20242;-22
2022/07/22 03:28:47;;;;;;;3.17;2.97;;;;;;;24.43;64.92;97771.31;5102801;28;20215;-21
2022/07/22 03:31:14;;;;;;;3.17;2.97;;;;;;;24.38;64.78;97767.78;5111454;28;20230;-21
2022/07/22 03:33:41;;;;;;;3.47;3.27;;;;;;;24.44;64.75;97777.31;5103067;28;20203;-21
2022/07/22 03:36:08;;;;;;;3.40;3.20;;;;;;;24.42;64.60;97779.84;5099066;28;20701;-21
2022/07/22 03:38:35;;;;;;;3.50;3.30;;;;;;;24.44;65.09;97780.75;5103013;28;20443;-21
2022/07/22 03:41:02;;;;;;;3.60;3.30;;;;;;;24.43;65.00;97788.44;5100222;28;20249;-22
2022/07/22 03:43:29;;;;;;;3.77;3.47;;;;;;;24.43;64.97;97791.88;5101107;28;20313;-22
2022/07/22 03:45:56;;;;;;;3.57;3.37;;;;;;;24.43;65.13;97786.72;5102739;28;20231;-21
2022/07/22 03:48:22;;;;;;;3.40;3.20;;;;;;;24.40;64.62;97786.66;5099100;28;20219;-21
2022/07/22 03:50:49;;;;;;;3.80;3.50;;;;;;;24.44;64.92;97777.31;5095930;28;20268;-21
2022/07/22 03:53:16;;;;;;;3.80;3.50;;;;;;;24.44;64.60;97787.59;5102955;28;20227;-21
2022/07/22 03:55:42;;;;;;;3.33;3.03;;;;;;;24.43;65.03;97791.00;5102270;28;20199;-21
2022/07/22 03:58:09;;;;;;;3.63;3.40;;;;;;;24.44;64.32;97790.16;5099989;28;20222;-21
2022/07/22 04:00:36;;;;;;;3.10;2.90;;;;;;;24.43;64.74;97794.44;5111053;28;20229;-21
2022/07/22 04:03:02;;;;;;;3.27;3.07;;;;;;;24.39;64.76;97781.50;5110517;28;20195;-22
2022/07/22 04:05:29;;;;;;;3.37;3.17;;;;;;;24.44;64.70;97793.59;5097424;28;20290;-21
2022/07/22 04:07:56;;;;;;;3.40;3.20;;;;;;;24.44;65.10;97791.03;5094987;28;20227;-22
2022/07/22 04:10:22;;;;;;;3.60;3.30;;;;;;;24.44;64.75;97795.28;5091680;28;20230;-21
2022/07/22 04:12:49;;;;;;;3.50;3.20;;;;;;;24.43;65.23;97789.31;5094173;28;20628;-22
2022/07/22 04:15:15;;;;;;;3.50;3.20;;;;;;;24.43;64.74;97788.44;5109611;28;20614;-21
2022/07/22 04:17:42;;;;;;;3.33;3.03;;;;;;;24.42;64.66;97797.81;5102376;28;20265;-21
2022/07/22 04:20:09;;;;;;;3.53;3.30;;;;;;;24.41;64.92;97798.66;5108980;28;20584;-22
2022/07/22 04:22:35;;;;;;;3.50;3.30;;;;;;;24.41;64.82;97793.53;5100396;28;20231;-21
2022/07/22 04:25:02;;;;;;;3.27;3.07;;;;;;;24.41;65.03;97790.09;5098637;28;20286;-21
2022/07/22 04:27:29;;;;;;;3.43;3.20;;;;;;;24.40;64.81;97794.38;5106982;28;20327;-21
2022/07/22 04:29:56;;;;;;;3.50;3.20;;;;;;;24.29;64.56;97772.72;5113295;28;20241;-21
2022/07/22 04:32:22;;;;;;;3.23;3.03;;;;;;;24.40;64.82;97791.81;5112968;28;20199;-22
2022/07/22 04:34:49;;;;;;;3.30;3.10;;;;;;;24.40;64.74;97788.34;5105293;28;20290;-21
2022/07/22 04:37:16;;;;;;;3.73;3.43;;;;;;;24.41;64.68;97790.09;5100881;28;20215;-22
2022/07/22 04:39:42;;;;;;;3.10;2.90;;;;;;;24.40;65.15;97790.94;5106427;28;20258;-21
2022/07/22 04:42:09;;;;;;;3.10;2.90;;;;;;;24.40;64.66;97791.81;5101317;28;20195;-22
2022/07/22 04:44:35;;;;;;;3.50;3.30;;;;;;;24.41;65.20;97788.41;5095254;28;20235;-22
2022/07/22 04:47:02;;;;;;;3.10;2.90;;;;;;;24.42;64.93;97786.69;5095008;28;20224;-22
2022/07/22 04:49:34;;;;;;;3.47;3.27;;;;;;;24.35;64.80;97777.97;5095215;28;20257;-21
2022/07/22 04:52:01;;;;;;;3.37;3.17;;;;;;;24.42;64.44;97791.84;5095329;28;20203;-22
2022/07/22 04:54:28;;;;;;;4.00;3.70;;;;;;;24.43;64.90;97789.31;5094767;28;20231;-22
2022/07/22 04:56:55;;;;;;;3.40;3.20;;;;;;;24.31;64.44;97765.03;5094688;28;20219;-21
2022/07/22 04:59:21;;;;;;;3.30;3.10;;;;;;;24.40;64.83;97781.53;5095222;28;20475;-21
2022/07/22 05:01:49;;;;;;;3.50;3.30;;;;;;;24.44;64.71;97790.16;5095008;28;20245;-21
2022/07/22 05:04:16;;;;;;;3.67;3.37;;;;;;;24.44;65.11;97793.59;5096029;28;20205;-21
2022/07/22 05:06:43;;;;;;;3.50;3.30;;;;;;;24.44;64.78;97793.59;5114669;28;20219;-22
2022/07/22 05:09:09;;;;;;;3.70;3.47;;;;;;;24.45;64.41;97794.47;5114979;28;20215;-22
2022/07/22 05:11:36;;;;;;;3.33;3.13;;;;;;;24.44;64.54;97798.75;5114788;28;20238;-21
2022/07/22 05:14:03;;;;;;;3.90;3.60;;;;;;;24.44;64.83;97796.16;5115127;28;20713;-22
2022/07/22 05:16:29;;;;;;;3.73;3.43;;;;;;;24.45;64.89;97792.75;5114689;28;20257;-22
2022/07/22 05:18:56;;;;;;;3.37;3.17;;;;;;;24.45;64.94;97794.47;5115246;28;20304;-22
2022/07/22 05:21:23;;;;;;;3.40;3.20;;;;;;;24.45;64.94;97792.75;5114695;28;20585;-21
2022/07/22 05:23:50;;;;;;;3.73;3.47;;;;;;;24.45;64.62;97792.75;5114876;28;20226;-22
2022/07/22 05:26:16;;;;;;;3.70;3.40;;;;;;;24.44;64.82;97810.69;5114019;28;20258;-22
2022/07/22 05:28:43;;;;;;;3.83;3.53;;;;;;;24.46;64.78;97796.19;5114752;28;20323;-21
2022/07/22 05:31:10;;;;;;;3.30;3.10;;;;;;;24.45;64.51;97792.75;5113433;28;20302;-22
2022/07/22 05:33:36;;;;;;;3.33;3.13;;;;;;;24.45;64.92;97794.47;5114588;28;20225;-22
2022/07/22 05:36:05;;;;;;;3.53;3.33;;;;;;;24.46;64.91;97791.94;5114199;28;20305;-22
2022/07/22 05:38:33;;;;;;;3.30;3.10;;;;;;;24.46;64.88;97794.50;5114339;28;20203;-21
2022/07/22 05:40:59;;;;;;;3.50;3.30;;;;;;;24.37;64.88;97780.59;5113953;28;20210;-22
2022/07/22 05:43:26;;;;;;;3.90;3.60;;;;;;;24.47;64.73;97792.78;5114358;28;20245;-21
2022/07/22 05:45:52;;;;;;;3.53;3.23;;;;;;;24.46;64.75;97791.06;5114139;28;20256;-22
2022/07/22 05:48:19;;;;;;;3.50;3.30;;;;;;;24.46;64.63;97791.06;5113984;28;20222;-21
2022/07/22 05:50:46;;;;;;;3.30;3.10;;;;;;;24.44;64.40;97791.03;5114352;28;20677;-22
2022/07/22 05:53:13;;;;;;;3.40;3.20;;;;;;;24.44;64.95;97778.19;5113806;28;20613;-21
2022/07/22 05:55:39;;;;;;;3.43;3.23;;;;;;;24.41;64.31;97784.94;5113868;28;20294;-22
2022/07/22 05:58:06;;;;;;;3.40;3.20;;;;;;;24.44;64.49;97793.59;5114436;28;20617;-22
2022/07/22 06:00:32;;;;;;;3.70;3.40;;;;;;;24.44;64.47;97792.72;5114202;28;20282;-22
2022/07/22 06:02:59;;;;;;;3.50;3.20;;;;;;;24.43;64.98;97791.88;5113986;28;20634;-21
2022/07/22 06:05:26;;;;;;;3.53;3.23;;;;;;;24.44;64.95;97792.72;5102491;28;20230;-22
2022/07/22 06:08:03;;;;;;;3.67;3.47;;;;;;;24.43;64.47;97786.72;5093524;28;20221;-22
2022/07/22 06:10:29;;;;;;;3.33;3.13;;;;;;;24.43;64.82;97789.31;5093773;28;20200;-22
2022/07/22 06:12:56;;;;;;;3.20;3.00;;;;;;;24.44;64.74;97798.75;5092268;28;20296;-22
2022/07/22 06:15:23;;;;;;;3.53;3.33;;;;;;;24.39;64.36;97786.63;5093315;28;20254;-22
2022/07/22 06:17:52;;;;;;;3.40;3.20;;;;;;;24.45;64.73;97802.19;5093329;28;20593;-22
2022/07/22 06:20:19;;;;;;;3.50;3.30;;;;;;;24.46;64.61;97802.22;5093247;28;20200;-21
2022/07/22 06:22:45;;;;;;;3.30;3.10;;;;;;;24.41;64.90;97782.38;5093600;28;20268;-21
2022/07/22 06:25:12;;;;;;;3.30;3.10;;;;;;;24.47;64.42;97795.34;5092997;28;20637;-22
2022/07/22 06:27:59;;;;;;;3.00;2.80;;;;;;;24.47;64.67;97796.22;5093284;28;20299;-22
2022/07/22 06:30:26;;;;;;;3.53;3.33;;;;;;;24.47;64.26;97792.78;5093277;28;20234;-22
2022/07/22 06:32:53;;;;;;;3.83;3.53;;;;;;;24.34;64.33;97771.09;5093425;28;20272;-22
2022/07/22 06:35:24;;;;;;;3.47;3.27;;;;;;;24.32;64.88;97762.50;5093003;28;20203;-21
2022/07/22 06:37:51;;;;;;;3.33;3.13;;;;;;;24.47;64.79;97796.22;5093176;28;20215;-21
2022/07/22 06:40:33;;;;;;;3.60;3.33;;;;;;;24.48;64.93;97794.53;5092826;28;20625;-21
2022/07/22 06:43:01;;;;;;;3.10;2.90;;;;;;;24.43;64.82;97791.00;5091650;28;20666;-21
2022/07/22 06:45:28;;;;;;;3.43;3.23;;;;;;;24.47;64.45;97788.53;5092608;28;20208;-22
2022/07/22 06:47:54;;;;;;;3.33;3.13;;;;;;;24.48;64.60;97797.97;5092672;28;20272;-21
2022/07/22 06:50:21;;;;;;;3.23;3.03;;;;;;;24.46;64.40;97794.50;5092468;28;20196;-22
2022/07/22 06:52:49;;;;;;;3.30;3.10;;;;;;;24.47;64.69;97788.53;5092837;28;20200;-22
2022/07/22 06:55:16;;;;;;;3.53;3.13;;;;;;;24.48;64.61;97800.53;5092220;28;20239;-22
2022/07/22 06:57:42;;;;;;;3.40;3.20;;;;;;;24.48;64.36;97797.97;5092699;28;20215;-22
2022/07/22 07:00:10;;;;;;;3.47;3.27;;;;;;;24.43;64.62;97775.59;5092354;28;20196;-21
2022/07/22 07:02:36;;;;;;;3.27;3.07;;;;;;;24.48;64.75;97779.97;5092416;28;20199;-22
2022/07/22 07:05:04;;;;;;;3.50;3.20;;;;;;;24.47;64.84;97783.38;5099830;28;20669;-22
2022/07/22 07:07:30;;;;;;;3.40;3.20;;;;;;;24.48;64.79;97779.97;5112660;28;20268;-21
2022/07/22 07:10:02;;;;;;;3.20;3.00;;;;;;;24.49;64.73;97780.84;5112650;28;20195;-22
2022/07/22 07:12:29;;;;;;;3.27;3.07;;;;;;;24.41;64.36;97765.28;5112627;28;20230;-22
2022/07/22 07:15:03;;;;;;;3.20;3.00;;;;;;;24.48;64.70;97774.00;5112819;28;20214;-21
2022/07/22 07:17:49;;;;;;;3.50;3.30;;;;;;;24.48;64.39;97777.41;5112524;28;20215;-21
2022/07/22 07:20:16;;;;;;;3.70;3.40;;;;;;;24.41;64.11;97765.28;5112638;28;20290;-21
2022/07/22 07:22:43;;;;;;;3.93;3.50;;;;;;;24.47;64.49;97778.25;5112666;28;20577;-21
2022/07/22 07:25:09;;;;;;;3.17;2.97;;;;;;;24.47;64.27;97772.22;5112672;28;20229;-22
2022/07/22 07:27:49;;;;;;;3.37;3.17;;;;;;;24.46;64.27;97776.53;5111870;28;20227;-22
2022/07/22 07:30:15;;;;;;;3.60;3.30;;;;;;;24.45;64.60;97777.34;5112603;28;20557;-21
2022/07/22 07:32:42;;;;;;;3.20;3.00;;;;;;;24.45;64.80;97777.34;5112038;28;20203;-22
2022/07/22 07:35:09;;;;;;;3.17;2.97;;;;;;;24.44;64.34;97770.47;5111875;28;20203;-21
2022/07/22 07:37:36;;;;;;;2.80;2.60;;;;;;;24.45;64.45;97779.91;5111927;28;20254;-21
2022/07/22 07:40:03;;;;;;;3.10;2.90;;;;;;;24.45;64.40;97771.34;5112223;28;20235;-21
2022/07/22 07:42:30;;;;;;;4.47;3.50;;;;;;;24.46;64.30;97773.06;5111798;28;20195;-21
2022/07/22 07:44:56;;;;;;;3.60;3.40;;;;;;;24.45;64.38;97771.34;5112068;28;20226;-22
2022/07/22 07:47:23;;;;;;;3.20;3.00;;;;;;;24.45;64.37;97774.75;5111420;28;20306;-22
2022/07/22 07:49:50;;;;;;;3.30;3.10;;;;;;;24.47;64.51;97767.09;5111636;28;20226;-22
2022/07/22 07:52:17;;;;;;;3.40;3.20;;;;;;;24.47;64.84;97770.53;5111729;28;20634;-22
2022/07/22 07:54:44;;;;;;;3.10;2.90;;;;;;;24.48;64.68;97762.00;5111371;28;20199;-23
2022/07/22 07:57:30;;;;;;;3.30;3.10;;;;;;;24.42;64.59;97754.16;5111308;28;20218;-22
2022/07/22 07:59:57;;;;;;;3.07;2.87;;;;;;;24.35;64.38;97730.88;5111760;28;20617;-22
2022/07/22 08:02:24;;;;;;;3.50;3.30;;;;;;;24.48;64.75;97756.84;5111265;28;20603;-21
2022/07/22 08:04:50;;;;;;;3.47;3.27;;;;;;;24.49;64.50;97753.47;5111573;28;20199;-22
2022/07/22 08:07:24;;;;;;;3.43;3.23;;;;;;;24.49;64.68;97750.91;5111276;28;20614;-22
2022/07/22 08:09:52;;;;;;;3.30;3.10;;;;;;;24.47;64.68;97749.97;5111635;28;20233;-22
2022/07/22 08:12:35;;;;;;;3.30;3.10;;;;;;;24.50;64.47;97754.31;5110956;28;20198;-22
2022/07/22 08:15:03;;;;;;;3.73;3.43;;;;;;;24.49;64.66;97752.59;5111345;28;20198;-22
2022/07/22 08:17:30;;;;;;;3.13;2.93;;;;;;;24.43;64.24;97737.91;5111629;28;20237;-23
2022/07/22 08:19:57;;;;;;;3.23;3.03;;;;;;;24.49;64.76;97747.44;5111757;28;20246;-22
2022/07/22 08:22:23;;;;;;;3.10;2.90;;;;;;;24.50;64.64;97756.88;5111272;28;20294;-22
2022/07/22 08:24:50;;;;;;;3.27;3.07;;;;;;;24.50;64.17;97749.16;5111123;28;20599;-22
2022/07/22 08:27:16;;;;;;;3.83;3.43;;;;;;;24.49;64.64;97756.03;5111071;28;20230;-22
2022/07/22 08:29:43;;;;;;;3.30;3.10;;;;;;;24.49;64.33;97753.47;5111171;28;20276;-22
2022/07/22 08:32:10;;;;;;;3.10;2.90;;;;;;;24.49;64.72;97755.16;5111587;28;20202;-22
2022/07/22 08:34:38;;;;;;;3.20;3.00;;;;;;;24.50;64.54;97747.47;5111377;28;20286;-22
2022/07/22 08:37:04;;;;;;;3.30;3.00;;;;;;;24.50;64.12;97751.75;5110962;28;20222;-22
2022/07/22 08:39:31;;;;;;;3.10;2.90;;;;;;;24.38;64.79;97730.94;5110855;28;20293;-22
2022/07/22 08:41:57;;;;;;;3.30;3.10;;;;;;;24.50;64.23;97752.63;5111347;28;20199;-22
2022/07/22 08:44:24;;;;;;;3.20;3.00;;;;;;;24.50;64.74;97744.91;5111245;28;20198;-22
2022/07/22 08:46:51;;;;;;;2.90;2.70;;;;;;;24.50;64.35;97747.47;5111370;28;20654;-22
2022/07/22 08:49:17;;;;;;;3.33;3.13;;;;;;;24.50;64.49;97751.75;5110808;28;20303;-22
2022/07/22 08:51:44;;;;;;;3.30;3.10;;;;;;;24.48;64.58;97741.44;5111262;28;20202;-22
2022/07/22 08:54:13;;;;;;;3.13;2.93;;;;;;;24.48;64.57;97746.56;5110833;28;20198;-22
2022/07/22 08:56:42;;;;;;;2.87;2.67;;;;;;;24.42;64.33;97728.47;5110755;28;20219;-22
2022/07/22 08:59:09;;;;;;;3.20;3.00;;;;;;;24.48;64.61;97744.00;5109757;28;20228;-22
2022/07/22 09:01:35;;;;;;;2.83;2.63;;;;;;;24.38;64.52;97726.66;5110958;28;20238;-22
2022/07/22 09:04:02;;;;;;;3.37;3.10;;;;;;;24.46;64.31;97735.41;5111105;28;20202;-22
2022/07/22 09:06:33;;;;;;;3.20;3.00;;;;;;;24.41;64.34;97718.16;5092782;28;20216;-22
2022/07/22 09:09:02;;;;;;;3.70;3.40;;;;;;;24.46;64.32;97730.28;5094311;28;20601;-22
2022/07/22 09:11:36;;;;;;;2.90;2.70;;;;;;;24.47;64.36;97731.13;5094406;28;20271;-22
2022/07/22 09:14:02;;;;;;;3.27;3.07;;;;;;;23.11;64.45;97494.50;5093818;28;20286;-21
2022/07/22 09:16:46;;;;;;;3.43;3.23;;;;;;;24.47;64.62;97731.13;5093572;28;20322;-21
2022/07/22 09:19:14;;;;;;;3.23;3.03;;;;;;;24.47;64.60;97723.41;5094476;28;20202;-22
2022/07/22 09:21:42;;;;;;;3.37;3.13;;;;;;;24.47;64.18;97726.84;5094083;28;20253;-22
2022/07/22 09:24:09;;;;;;;3.30;3.10;;;;;;;24.47;64.21;97721.72;5093998;28;20810;-22
2022/07/22 09:26:37;;;;;;;3.20;3.00;;;;;;;24.48;64.29;97720.03;5092198;28;20270;-22
2022/07/22 09:29:04;;;;;;;3.27;3.07;;;;;;;24.49;64.58;97711.47;5094212;28;20254;-22
2022/07/22 09:31:34;;;;;;;3.50;3.30;;;;;;;24.50;64.54;97710.63;5094092;28;20632;-22
2022/07/22 09:34:03;;;;;;;3.00;2.80;;;;;;;24.32;64.20;97684.56;5094064;28;20199;-22
2022/07/22 09:36:30;;;;;;;3.07;2.87;;;;;;;24.50;64.30;97719.22;5093864;28;20575;-22
2022/07/22 09:38:57;;;;;;;2.90;2.70;;;;;;;24.44;64.53;97698.53;5093909;28;20249;-22
2022/07/22 09:41:25;;;;;;;3.00;2.80;;;;;;;24.50;64.14;97701.22;5093479;28;20223;-21
2022/07/22 09:43:52;;;;;;;3.07;2.87;;;;;;;24.50;64.26;97702.91;5093954;28;20204;-22
2022/07/22 09:46:34;;;;;;;3.00;2.80;;;;;;;24.48;64.44;97694.34;5093410;28;20250;-21
2022/07/22 09:49:00;;;;;;;3.07;2.87;;;;;;;24.51;64.66;97699.53;5092394;28;20239;-22
2022/07/22 09:51:27;;;;;;;3.20;3.00;;;;;;;24.50;64.23;97693.53;5093741;28;20204;-22
2022/07/22 09:53:55;;;;;;;3.10;2.90;;;;;;;24.44;64.25;97682.25;5091692;28;20286;-23
2022/07/22 09:56:23;;;;;;;3.10;2.90;;;;;;;24.51;64.38;97687.53;5075380;28;20220;-22
2022/07/22 09:58:49;;;;;;;3.40;3.20;;;;;;;24.51;64.41;97684.13;5091972;28;20231;-22
2022/07/22 10:01:16;;;;;;;2.87;2.67;;;;;;;24.50;64.49;97675.53;5093191;28;20245;-22
2022/07/22 10:03:42;;;;;;;3.27;3.07;;;;;;;24.08;64.33;97602.75;5075222;28;20207;-22
2022/07/22 10:06:10;;;;;;;3.17;2.97;;;;;;;24.49;64.41;97676.38;5092230;28;20215;-22
2022/07/22 10:08:36;;;;;;;3.03;2.83;;;;;;;24.48;64.41;97676.34;5112155;28;20268;-22
2022/07/22 10:11:06;;;;;;;3.10;2.90;;;;;;;24.47;64.25;97672.03;5112363;28;20703;-22
2022/07/22 10:13:34;;;;;;;3.10;2.90;;;;;;;24.47;64.42;97672.03;5112444;28;20733;-23
2022/07/22 10:16:01;;;;;;;2.93;2.73;;;;;;;24.46;64.29;97671.19;5113251;28;20222;-22
2022/07/22 10:18:30;;;;;;;3.20;3.00;;;;;;;24.47;64.36;97661.75;5111581;28;20194;-22
2022/07/22 10:21:06;;;;;;;3.10;2.90;;;;;;;24.47;64.62;97662.63;5113305;28;20202;-22
2022/07/22 10:23:33;;;;;;;2.90;2.70;;;;;;;24.48;64.63;97666.06;5113446;28;20558;-22
2022/07/22 10:26:01;;;;;;;3.20;3.00;;;;;;;24.48;64.77;97658.38;5113030;28;20666;-23
2022/07/22 10:28:31;;;;;;;3.30;3.10;;;;;;;24.35;64.75;97635.81;5113382;28;20256;-22
2022/07/22 10:31:20;;;;;;;3.20;3.00;;;;;;;24.48;64.77;97656.63;5113041;28;20621;-21
2022/07/22 10:33:54;;;;;;;2.97;2.77;;;;;;;24.48;64.56;97654.06;5112867;28;20228;-22
2022/07/22 10:36:33;;;;;;;3.13;2.93;;;;;;;24.49;64.66;97652.38;5112863;28;20270;-21
2022/07/22 10:39:06;;;;;;;3.73;3.43;;;;;;;24.49;64.25;97653.25;5112838;28;20199;-23
2022/07/22 10:41:41;;;;;;;3.03;2.83;;;;;;;24.49;64.31;97645.53;5112845;28;20254;-21
2022/07/22 10:44:10;;;;;;;3.40;3.20;;;;;;;24.43;64.23;97641.97;5112911;28;20201;-22
2022/07/22 10:46:50;;;;;;;3.37;3.17;;;;;;;24.50;64.67;97648.97;5112545;28;20757;-23
2022/07/22 10:49:18;;;;;;;3.30;3.10;;;;;;;24.39;64.50;97628.19;5112362;28;20236;-21
2022/07/22 10:52:06;;;;;;;3.37;3.17;;;;;;;24.50;64.55;97644.69;5112633;28;20324;-22
2022/07/22 10:55:14;;;;;;;3.40;3.20;;;;;;;24.51;64.23;97640.44;5112616;28;20195;-22
2022/07/22 10:57:40;;;;;;;3.60;3.30;;;;;;;24.51;64.41;97635.31;5112858;28;20215;-22
2022/07/22 11:00:07;;;;;;;3.43;3.17;;;;;;;24.50;64.34;97634.44;5112446;28;20243;-22
2022/07/22 11:02:35;;;;;;;3.30;3.10;;;;;;;24.52;64.40;97640.47;5112681;28;20636;-23
2022/07/22 11:05:02;;;;;;;3.30;3.10;;;;;;;24.52;64.38;97634.44;5103239;28;20196;-22
2022/07/22 11:07:31;;;;;;;3.50;3.30;;;;;;;24.52;64.30;97629.31;5091864;28;20251;-22
2022/07/22 11:10:17;;;;;;;3.40;3.20;;;;;;;24.51;64.14;97625.88;5092051;28;20306;-22
2022/07/22 11:12:47;;;;;;;3.40;3.20;;;;;;;24.47;64.53;97610.38;5091870;28;20204;-22
2022/07/22 11:15:14;;;;;;;3.13;2.93;;;;;;;24.52;64.21;97626.75;5091459;28;20315;-22
2022/07/22 11:17:41;;;;;;;3.73;3.43;;;;;;;24.51;64.07;97620.72;5091819;28;20744;-22
2022/07/22 11:20:09;;;;;;;3.30;3.00;;;;;;;24.50;64.50;97618.13;5091780;28;20242;-22
2022/07/22 11:22:38;;;;;;;3.30;3.10;;;;;;;24.49;64.28;97621.53;5091639;28;20199;-22
2022/07/22 11:25:09;;;;;;;3.57;3.30;;;;;;;24.50;64.62;97610.41;5091177;28;20200;-22
2022/07/22 11:27:35;;;;;;;3.17;2.97;;;;;;;24.49;64.60;97606.13;5091316;28;20300;-22
2022/07/22 11:30:04;;;;;;;3.30;3.10;;;;;;;24.49;64.50;97611.28;5091116;28;20216;-22
2022/07/22 11:32:32;;;;;;;3.20;3.00;;;;;;;24.48;64.49;97604.41;5091634;28;20210;-22
2022/07/22 11:34:59;;;;;;;3.00;2.80;;;;;;;24.48;64.28;97601.84;5091573;28;20338;-22
2022/07/22 11:37:26;;;;;;;3.37;3.17;;;;;;;24.47;64.27;97593.25;5091667;28;20224;-22